createdAt,value
2023-02-03T00:01:33.147Z,1.73
2023-02-03T00:04:36.618Z,2.37
2023-02-03T00:07:40.436Z,1.87
2023-02-03T00:10:43.848Z,1.90
2023-02-03T00:13:46.860Z,1.80
2023-02-03T00:16:50.356Z,1.85
2023-02-03T00:19:53.553Z,1.85
2023-02-03T00:23:06.302Z,1.75
2023-02-03T00:26:15.465Z,2.05
2023-02-03T00:29:21.675Z,1.73
2023-02-03T00:32:24.935Z,1.50
2023-02-03T00:35:28.566Z,1.62
2023-02-03T00:38:31.953Z,1.60
2023-02-03T00:41:35.277Z,2.42
2023-02-03T00:44:38.378Z,2.60
2023-02-03T00:47:42.724Z,1.77
2023-02-03T00:50:48.853Z,1.85
2023-02-03T00:53:52.412Z,1.50
2023-02-03T00:56:55.657Z,1.60
2023-02-03T00:59:59.150Z,1.70
2023-02-03T01:03:02.538Z,1.77
2023-02-03T01:06:16.178Z,1.60
2023-02-03T01:09:19.374Z,1.60
2023-02-03T01:12:23.339Z,1.37
2023-02-03T01:15:26.499Z,1.65
2023-02-03T01:18:30.056Z,1.42
2023-02-03T01:21:36.354Z,1.30
2023-02-03T01:24:40.502Z,1.30
2023-02-03T01:27:43.778Z,1.80
2023-02-03T01:30:47.940Z,1.40
2023-02-03T01:33:52.861Z,1.60
2023-02-03T01:36:56.379Z,1.00
2023-02-03T01:39:59.895Z,1.23
2023-02-03T01:43:03.222Z,1.35
2023-02-03T01:46:26.173Z,1.35
2023-02-03T01:49:37.324Z,1.77
2023-02-03T01:52:47.755Z,1.87
2023-02-03T01:55:51.546Z,1.55
2023-02-03T01:58:54.808Z,1.25
2023-02-03T02:02:00.844Z,1.30
2023-02-03T02:05:31.724Z,1.65
2023-02-03T02:08:36.626Z,1.50
2023-02-03T02:11:40.022Z,1.47
2023-02-03T02:14:47.428Z,1.27
2023-02-03T02:18:01.085Z,1.50
2023-02-03T02:21:08.535Z,1.75
2023-02-03T02:24:47.401Z,1.70
2023-02-03T02:28:15.336Z,1.20
2023-02-03T02:31:52.753Z,1.15
2023-02-03T02:35:11.247Z,1.07
2023-02-03T02:38:25.829Z,1.00
2023-02-03T02:41:39.987Z,1.50
2023-02-03T02:44:52.471Z,1.17
2023-02-03T02:48:05.734Z,1.40
2023-02-03T02:51:12.945Z,0.90
2023-02-03T02:54:20.877Z,1.35
2023-02-03T02:57:28.823Z,1.05
2023-02-03T03:00:34.618Z,1.10
2023-02-03T03:03:40.753Z,1.65
2023-02-03T03:06:53.286Z,1.30
2023-02-03T03:10:03.590Z,1.10
2023-02-03T03:13:10.567Z,1.10
2023-02-03T03:16:15.311Z,1.00
2023-02-03T03:19:24.479Z,1.20
2023-02-03T03:22:34.460Z,1.25
2023-02-03T03:25:43.796Z,0.93
2023-02-03T03:28:56.273Z,1.10
2023-02-03T03:32:03.400Z,1.27
2023-02-03T03:35:08.216Z,0.90
2023-02-03T03:38:22.529Z,1.20
2023-02-03T03:41:29.334Z,1.10
2023-02-03T03:45:05.198Z,1.25
2023-02-03T03:48:19.967Z,1.27
2023-02-03T03:51:40.947Z,1.20
2023-02-03T03:54:46.152Z,1.30
2023-02-03T03:57:57.252Z,1.60
2023-02-03T04:01:04.385Z,1.33
2023-02-03T04:04:11.323Z,1.52
2023-02-03T04:07:14.999Z,1.42
2023-02-03T04:10:39.782Z,1.53
2023-02-03T04:13:43.707Z,1.30
2023-02-03T04:16:47.159Z,1.42
2023-02-03T04:19:50.429Z,1.40
2023-02-03T04:22:54.031Z,1.50
2023-02-03T04:25:57.112Z,1.37
2023-02-03T04:29:00.418Z,1.50
2023-02-03T04:32:03.645Z,1.10
2023-02-03T04:35:08.317Z,1.17
2023-02-03T04:38:11.744Z,1.20
2023-02-03T04:41:15.302Z,1.00
2023-02-03T04:44:18.378Z,1.20
2023-02-03T04:47:21.800Z,1.20
2023-02-03T04:50:24.860Z,1.57
2023-02-03T04:53:28.378Z,1.35
2023-02-03T04:56:31.616Z,1.50
2023-02-03T04:59:34.991Z,1.60
2023-02-03T05:02:38.170Z,1.45
2023-02-03T05:05:41.743Z,1.45
2023-02-03T05:08:45.236Z,1.60
2023-02-03T05:11:48.612Z,1.30
2023-02-03T05:14:51.907Z,1.40
2023-02-03T05:17:55.994Z,1.17
2023-02-03T05:20:59.596Z,1.40
2023-02-03T05:24:06.964Z,1.40
2023-02-03T05:27:10.636Z,1.65
2023-02-03T05:30:18.451Z,1.67
2023-02-03T05:33:21.553Z,1.12
2023-02-03T05:36:27.210Z,1.42
2023-02-03T05:39:30.616Z,1.60
2023-02-03T05:42:34.061Z,1.10
2023-02-03T05:45:37.267Z,1.25
2023-02-03T05:48:41.028Z,1.37
2023-02-03T05:51:44.404Z,1.10
2023-02-03T05:54:48.103Z,1.40
2023-02-03T05:57:54.189Z,1.30
2023-02-03T06:00:58.953Z,1.15
2023-02-03T06:04:03.622Z,1.30
2023-02-03T06:07:07.091Z,1.23
2023-02-03T06:10:10.869Z,1.17
2023-02-03T06:13:16.499Z,1.40
2023-02-03T06:16:20.025Z,1.00
2023-02-03T06:19:23.235Z,1.60
2023-02-03T06:22:26.857Z,2.40
2023-02-03T06:25:32.197Z,5.18
2023-02-03T06:28:38.284Z,2.15
2023-02-03T06:31:41.664Z,1.75
2023-02-03T06:34:45.390Z,2.83
2023-02-03T06:37:48.516Z,3.33
2023-02-03T06:40:52.153Z,2.67
2023-02-03T06:43:55.399Z,2.07
2023-02-03T06:46:59.266Z,1.90
2023-02-03T06:50:02.703Z,1.70
2023-02-03T06:53:07.909Z,1.70
2023-02-03T06:56:11.031Z,1.48
2023-02-03T06:59:15.556Z,1.60
2023-02-03T07:02:18.607Z,2.17
2023-02-03T07:05:23.703Z,2.00
2023-02-03T07:08:26.908Z,3.58
2023-02-03T07:11:31.520Z,2.00
2023-02-03T07:14:36.162Z,1.70
2023-02-03T07:17:39.862Z,1.92
2023-02-03T07:20:42.931Z,1.70
2023-02-03T07:23:49.864Z,1.70
2023-02-03T07:26:53.770Z,2.00
2023-02-03T07:29:57.157Z,1.62
2023-02-03T07:33:00.596Z,1.92
2023-02-03T07:36:04.438Z,2.50
2023-02-03T07:39:07.584Z,4.78
2023-02-03T07:42:12.307Z,6.00
2023-02-03T07:45:19.616Z,35.83
2023-02-03T07:48:23.545Z,11.95
2023-02-03T07:51:26.799Z,3.90
2023-02-03T07:54:30.207Z,2.43
2023-02-03T07:57:33.382Z,3.35
2023-02-03T08:00:37.522Z,2.00
2023-02-03T08:03:42.768Z,2.67
2023-02-03T08:06:45.965Z,2.05
2023-02-03T08:09:49.410Z,1.27
2023-02-03T08:12:56.303Z,1.70
2023-02-03T08:15:59.779Z,2.00
2023-02-03T08:19:03.115Z,1.60
2023-02-03T08:22:06.856Z,1.17
2023-02-03T08:25:10.495Z,1.63
2023-02-03T08:28:13.917Z,1.17
2023-02-03T08:31:17.555Z,2.10
2023-02-03T08:34:20.990Z,2.17
2023-02-03T08:37:24.768Z,4.55
2023-02-03T08:40:28.877Z,3.53
2023-02-03T08:43:32.500Z,3.70
2023-02-03T08:46:36.576Z,3.33
2023-02-03T08:49:40.308Z,3.37
2023-02-03T08:52:45.391Z,3.80
2023-02-03T08:55:48.640Z,3.87
2023-02-03T08:58:55.021Z,3.53
2023-02-03T09:02:00.041Z,3.45
2023-02-03T09:05:04.885Z,4.15
2023-02-03T09:08:09.369Z,2.75
2023-02-03T09:11:15.358Z,3.87
2023-02-03T09:14:18.587Z,4.07
2023-02-03T09:17:22.539Z,4.13
2023-02-03T09:20:29.105Z,4.18
2023-02-03T09:23:34.733Z,4.00
2023-02-03T09:26:37.995Z,3.73
2023-02-03T09:29:41.637Z,4.53
2023-02-03T09:32:49.017Z,4.65
2023-02-03T09:35:55.208Z,4.75
2023-02-03T09:38:58.664Z,4.25
2023-02-03T09:42:26.941Z,4.57
2023-02-03T09:45:31.919Z,3.37
2023-02-03T09:48:40.831Z,3.53
2023-02-03T09:51:54.645Z,3.92
2023-02-03T09:55:33.625Z,3.95
2023-02-03T09:58:36.765Z,4.17
2023-02-03T10:01:47.787Z,3.75
2023-02-03T10:05:01.476Z,6.07
2023-02-03T10:08:04.902Z,5.18
2023-02-03T10:11:33.943Z,7.35
2023-02-03T10:14:37.200Z,4.93
2023-02-03T10:17:47.461Z,5.32
2023-02-03T10:20:57.363Z,4.60
2023-02-03T10:24:04.217Z,5.35
2023-02-03T10:27:23.835Z,5.40
2023-02-03T10:30:32.032Z,6.60
2023-02-03T10:33:35.936Z,6.43
2023-02-03T10:36:45.565Z,5.82
2023-02-03T10:39:51.654Z,6.22
2023-02-03T10:43:14.280Z,6.78
2023-02-03T10:46:39.592Z,7.30
2023-02-03T10:49:45.350Z,7.07
2023-02-03T10:52:49.842Z,10.27
2023-02-03T10:56:09.673Z,9.90
2023-02-03T10:59:29.984Z,7.93
2023-02-03T11:02:33.760Z,7.43
2023-02-03T11:05:37.152Z,7.25
2023-02-03T11:08:47.390Z,8.23
2023-02-03T11:12:06.088Z,7.97
2023-02-03T11:15:15.155Z,8.40
2023-02-03T11:18:36.410Z,9.13
2023-02-03T11:21:39.873Z,9.82
2023-02-03T11:24:43.621Z,8.70
2023-02-03T11:27:47.600Z,9.55
2023-02-03T11:30:57.726Z,9.27
2023-02-03T11:34:06.795Z,11.57
2023-02-03T11:37:28.751Z,9.10
2023-02-03T11:40:34.367Z,9.10
2023-02-03T11:43:37.687Z,11.38
2023-02-03T11:46:42.591Z,9.18
2023-02-03T11:50:04.186Z,8.40
2023-02-03T11:53:10.970Z,11.23
2023-02-03T11:56:28.390Z,10.00
2023-02-03T11:59:53.151Z,7.80
2023-02-03T12:03:03.714Z,9.15
2023-02-03T12:06:29.777Z,7.47
2023-02-03T12:09:48.375Z,8.68
2023-02-03T12:13:10.112Z,9.55
2023-02-03T12:16:32.292Z,9.55
2023-02-03T12:20:06.747Z,8.38
2023-02-03T12:23:25.119Z,8.98
2023-02-03T12:26:49.928Z,9.77
2023-02-03T12:30:07.606Z,8.23
2023-02-03T12:33:23.399Z,4.78
2023-02-03T12:37:05.163Z,8.25
2023-02-03T12:40:43.431Z,9.30
2023-02-03T12:43:52.785Z,7.90
2023-02-03T12:47:12.270Z,8.00
2023-02-03T12:50:22.181Z,5.00
2023-02-03T12:53:36.858Z,7.25
2023-02-03T12:56:44.930Z,4.70
2023-02-03T12:59:59.307Z,7.85
2023-02-03T13:03:05.600Z,5.67
2023-02-03T13:06:39.457Z,10.65
2023-02-03T13:09:57.128Z,5.05
2023-02-03T13:13:03.434Z,6.27
2023-02-03T13:16:10.078Z,9.57
2023-02-03T13:19:24.294Z,6.05
2023-02-03T13:22:27.631Z,9.32
2023-02-03T13:25:41.157Z,8.63
2023-02-03T13:28:59.551Z,8.25
2023-02-03T13:32:18.051Z,5.37
2023-02-03T13:35:24.766Z,5.17
2023-02-03T13:39:14.663Z,4.62
2023-02-03T13:42:28.015Z,4.28
2023-02-03T13:45:42.164Z,5.87
2023-02-03T13:48:46.719Z,7.75
2023-02-03T13:51:50.220Z,4.70
2023-02-03T13:54:53.627Z,7.65
2023-02-03T13:57:57.780Z,8.75
2023-02-03T14:01:06.535Z,6.78
2023-02-03T14:04:24.952Z,6.82
2023-02-03T14:07:39.308Z,6.30
2023-02-03T14:10:43.141Z,4.57
2023-02-03T14:13:46.608Z,7.07
2023-02-03T14:16:56.351Z,9.57
2023-02-03T14:19:59.633Z,8.80
2023-02-03T14:23:05.940Z,11.93
2023-02-03T14:26:19.369Z,9.68
2023-02-03T14:29:35.794Z,9.98
2023-02-03T14:32:51.752Z,7.05
2023-02-03T14:35:55.594Z,4.80
2023-02-03T14:39:01.692Z,7.63
2023-02-03T14:42:07.783Z,7.57
2023-02-03T14:45:45.002Z,6.07
2023-02-03T14:48:54.906Z,5.60
2023-02-03T14:52:07.675Z,3.83
2023-02-03T14:55:29.728Z,5.30
2023-02-03T14:58:57.447Z,17.10
2023-02-03T15:02:03.514Z,9.02
2023-02-03T15:05:12.648Z,5.25
2023-02-03T15:08:55.334Z,6.75
2023-02-03T15:11:59.081Z,7.87
2023-02-03T15:15:29.636Z,8.07
2023-02-03T15:18:37.666Z,4.65
2023-02-03T15:21:42.491Z,6.57
2023-02-03T15:25:05.793Z,7.47
2023-02-03T15:28:30.264Z,6.53
2023-02-03T15:31:38.943Z,6.45
2023-02-03T15:34:49.022Z,6.07
2023-02-03T15:37:58.366Z,4.20
2023-02-03T15:41:03.890Z,9.32
2023-02-03T15:44:20.103Z,7.00
2023-02-03T15:47:35.948Z,6.45
2023-02-03T15:50:46.165Z,6.03
2023-02-03T15:54:02.363Z,3.47
2023-02-03T15:57:11.811Z,4.53
2023-02-03T16:00:33.710Z,6.07
2023-02-03T16:03:52.740Z,5.47
2023-02-03T16:06:56.844Z,3.15
2023-02-03T16:10:01.611Z,5.62
2023-02-03T16:13:19.339Z,7.32
2023-02-03T16:16:27.035Z,7.93
2023-02-03T16:19:38.705Z,11.98
2023-02-03T16:22:59.411Z,16.02
2023-02-03T16:26:16.539Z,10.70
2023-02-03T16:29:38.611Z,11.20
2023-02-03T16:33:01.229Z,5.05
2023-02-03T16:36:33.197Z,6.12
2023-02-03T16:39:55.375Z,3.75
2023-02-03T16:43:21.718Z,4.72
2023-02-03T16:46:44.213Z,8.85
2023-02-03T16:50:06.576Z,5.20
2023-02-03T16:53:16.568Z,7.32
2023-02-03T16:56:21.194Z,5.85
2023-02-03T16:59:25.312Z,6.53
2023-02-03T17:02:28.862Z,21.58
2023-02-03T17:05:32.725Z,13.05
2023-02-03T17:08:38.100Z,10.77
2023-02-03T17:11:41.590Z,6.43
2023-02-03T17:14:45.057Z,9.02
2023-02-03T17:17:50.133Z,10.18
2023-02-03T17:20:53.680Z,11.27
2023-02-03T17:24:00.687Z,19.15
2023-02-03T17:27:04.723Z,6.53
2023-02-03T17:30:09.136Z,4.93
2023-02-03T17:33:13.253Z,2.08
2023-02-03T17:36:19.709Z,4.10
2023-02-03T17:56:10.159Z,2.03
2023-02-03T17:59:14.535Z,2.58
2023-02-03T18:02:21.412Z,1.80
2023-02-03T18:05:26.024Z,2.30
2023-02-03T18:08:32.424Z,1.83
2023-02-03T18:11:42.710Z,2.33
2023-02-03T18:14:46.048Z,2.50
2023-02-03T18:17:52.381Z,2.47
2023-02-03T18:20:57.264Z,3.15
2023-02-03T18:24:06.431Z,3.00
2023-02-03T18:27:16.922Z,2.83
2023-02-03T18:30:22.339Z,2.45
2023-02-03T18:33:27.036Z,2.90
2023-02-03T18:36:33.397Z,3.55
2023-02-03T18:39:38.540Z,3.40
2023-02-03T18:42:44.062Z,2.75
2023-02-03T18:45:49.375Z,2.90
2023-02-03T18:48:59.467Z,2.83
2023-02-03T18:52:05.779Z,2.03
2023-02-03T18:55:11.158Z,2.17
2023-02-03T18:58:16.375Z,2.10
2023-02-03T19:01:27.680Z,2.40
2023-02-03T19:04:32.740Z,1.60
2023-02-03T19:07:39.066Z,1.30
2023-02-03T19:10:44.410Z,1.55
2023-02-03T19:13:49.704Z,1.48
2023-02-03T19:16:55.399Z,1.52
2023-02-03T19:20:02.051Z,1.58
2023-02-03T19:23:09.247Z,1.23
2023-02-03T19:26:16.352Z,1.43
2023-02-03T19:29:23.026Z,1.00
2023-02-03T19:32:29.106Z,0.90
2023-02-03T19:35:34.952Z,1.17
2023-02-03T19:38:40.855Z,1.23
2023-02-03T19:41:46.603Z,0.73
2023-02-03T19:44:52.146Z,0.98
2023-02-03T19:47:57.525Z,1.08
2023-02-03T19:51:05.180Z,1.65
2023-02-03T19:54:16.645Z,1.52
2023-02-03T19:57:25.365Z,1.00
2023-02-03T20:00:31.893Z,1.10
2023-02-03T20:03:37.552Z,0.98
2023-02-03T20:06:44.128Z,1.00
2023-02-03T20:09:53.621Z,0.80
2023-02-03T20:12:59.786Z,1.10
2023-02-03T20:16:05.817Z,0.95
2023-02-03T20:19:13.288Z,1.20
2023-02-03T20:22:19.065Z,0.85
2023-02-03T20:25:24.677Z,1.10
2023-02-03T20:28:30.724Z,1.20
2023-02-03T20:31:37.155Z,0.85
2023-02-03T20:34:43.756Z,0.77
2023-02-03T20:37:49.316Z,1.10
2023-02-03T20:40:54.477Z,1.10
2023-02-03T20:43:59.056Z,1.23
2023-02-03T20:47:09.337Z,1.30
2023-02-03T20:50:37.318Z,1.33
2023-02-03T20:53:50.663Z,0.90
2023-02-03T20:56:55.494Z,1.48
2023-02-03T21:00:00.379Z,2.50
2023-02-03T21:03:24.818Z,1.52
2023-02-03T21:06:33.352Z,1.20
2023-02-03T21:09:38.563Z,1.60
2023-02-03T21:12:43.973Z,1.23
2023-02-03T21:15:55.687Z,1.30
2023-02-03T21:19:03.450Z,1.40
2023-02-03T21:22:23.323Z,1.08
2023-02-03T21:25:32.518Z,1.10
2023-02-03T21:28:38.461Z,1.25
2023-02-03T21:31:47.077Z,1.30
2023-02-03T21:34:52.621Z,1.30
2023-02-03T21:38:03.054Z,1.30
2023-02-03T21:41:21.443Z,1.40
2023-02-03T21:44:37.213Z,1.37
2023-02-03T21:47:44.224Z,2.15
2023-02-03T21:50:49.073Z,1.50
2023-02-03T21:53:59.237Z,1.58
2023-02-03T21:57:04.036Z,1.60
2023-02-03T22:00:42.966Z,1.67
2023-02-03T22:03:51.771Z,1.10
2023-02-03T22:06:56.953Z,1.37
2023-02-03T22:10:02.282Z,2.08
2023-02-03T22:13:06.514Z,1.30
2023-02-03T22:16:11.078Z,1.27
2023-02-03T22:19:17.777Z,1.50
2023-02-03T22:22:21.622Z,1.00
2023-02-03T22:25:24.902Z,1.40
2023-02-03T22:28:29.954Z,1.10
2023-02-03T22:31:33.690Z,1.73
2023-02-03T22:34:37.330Z,1.30
2023-02-03T22:37:40.606Z,1.45
2023-02-03T22:40:44.680Z,2.00
2023-02-03T22:43:48.035Z,1.67
2023-02-03T22:46:51.423Z,1.35
2023-02-03T22:49:54.565Z,1.70
2023-02-03T22:52:58.391Z,1.20
2023-02-03T22:56:01.376Z,2.12
2023-02-03T22:59:04.908Z,1.80
2023-02-03T23:02:08.274Z,1.75
2023-02-03T23:05:11.815Z,1.40
2023-02-03T23:08:14.984Z,1.95
2023-02-03T23:11:19.738Z,1.40
2023-02-03T23:14:23.423Z,3.03
2023-02-03T23:17:27.208Z,1.83
2023-02-03T23:20:30.778Z,1.50
2023-02-03T23:23:34.458Z,2.05
2023-02-03T23:26:37.612Z,1.95
2023-02-03T23:29:41.653Z,1.42
2023-02-03T23:32:45.148Z,1.70
2023-02-03T23:35:50.205Z,1.20
2023-02-03T23:38:53.409Z,1.70
2023-02-03T23:41:58.081Z,1.75
2023-02-03T23:45:01.496Z,1.70
2023-02-03T23:48:06.420Z,2.00
2023-02-03T23:51:09.569Z,1.40
2023-02-03T23:54:13.037Z,1.85
2023-02-03T23:57:16.341Z,1.98
